sensor_id;sensor_type;location;lat;lon;timestamp;pressure;altitude;pressure_sealevel;temperature;humidity
13869;BME280;7004;48.206;16.402;2023-03-14T00:01:16;98068.81;;;10.16;63.67
13869;BME280;7004;48.206;16.402;2023-03-14T00:03:43;98073.00;;;10.19;63.34
13869;BME280;7004;48.206;16.402;2023-03-14T00:06:11;98074.81;;;10.18;63.26
13869;BME280;7004;48.206;16.402;2023-03-14T00:08:38;98082.03;;;10.16;63.37
13869;BME280;7004;48.206;16.402;2023-03-14T00:11:24;98066.06;;;10.18;63.28
13869;BME280;7004;48.206;16.402;2023-03-14T00:13:52;98068.22;;;10.03;63.95
13869;BME280;7004;48.206;16.402;2023-03-14T00:16:20;98071.03;;;10.11;63.53
13869;BME280;7004;48.206;16.402;2023-03-14T00:18:47;98072.00;;;10.10;63.79
13869;BME280;7004;48.206;16.402;2023-03-14T00:21:14;98070.50;;;10.27;63.33
13869;BME280;7004;48.206;16.402;2023-03-14T00:23:41;98067.44;;;10.12;63.81
13869;BME280;7004;48.206;16.402;2023-03-14T00:26:12;98059.50;;;10.12;64.08
13869;BME280;7004;48.206;16.402;2023-03-14T00:28:39;98044.22;;;10.16;64.12
13869;BME280;7004;48.206;16.402;2023-03-14T00:31:08;98046.84;;;10.06;64.29
13869;BME280;7004;48.206;16.402;2023-03-14T00:33:37;98034.38;;;10.18;63.96
13869;BME280;7004;48.206;16.402;2023-03-14T00:36:25;98034.53;;;10.26;63.65
13869;BME280;7004;48.206;16.402;2023-03-14T00:38:52;98024.94;;;10.25;63.49
13869;BME280;7004;48.206;16.402;2023-03-14T00:41:22;98033.25;;;10.20;64.00
13869;BME280;7004;48.206;16.402;2023-03-14T00:43:50;98026.84;;;10.13;64.32
13869;BME280;7004;48.206;16.402;2023-03-14T00:46:17;98027.06;;;10.31;64.03
13869;BME280;7004;48.206;16.402;2023-03-14T00:48:45;98031.16;;;10.14;63.89
13869;BME280;7004;48.206;16.402;2023-03-14T00:51:12;98025.88;;;10.14;64.04
13869;BME280;7004;48.206;16.402;2023-03-14T00:53:41;98020.59;;;10.14;64.37
13869;BME280;7004;48.206;16.402;2023-03-14T00:56:11;98021.13;;;10.08;64.68
13869;BME280;7004;48.206;16.402;2023-03-14T00:58:37;98012.50;;;10.06;64.95
13869;BME280;7004;48.206;16.402;2023-03-14T01:01:09;98001.00;;;10.07;64.57
13869;BME280;7004;48.206;16.402;2023-03-14T01:03:36;97996.69;;;9.96;64.95
13869;BME280;7004;48.206;16.402;2023-03-14T01:06:17;97999.47;;;10.14;64.43
13869;BME280;7004;48.206;16.402;2023-03-14T01:08:44;97991.69;;;10.13;64.26
13869;BME280;7004;48.206;16.402;2023-03-14T01:11:15;97985.31;;;10.15;64.66
13869;BME280;7004;48.206;16.402;2023-03-14T01:13:43;97964.88;;;10.17;64.24
13869;BME280;7004;48.206;16.402;2023-03-14T01:16:10;97970.97;;;9.98;64.96
13869;BME280;7004;48.206;16.402;2023-03-14T01:18:38;97974.44;;;10.09;64.56
13869;BME280;7004;48.206;16.402;2023-03-14T01:21:23;97966.34;;;9.81;65.50
13869;BME280;7004;48.206;16.402;2023-03-14T01:23:52;97964.41;;;9.83;65.75
13869;BME280;7004;48.206;16.402;2023-03-14T01:26:22;97956.63;;;9.81;65.73
13869;BME280;7004;48.206;16.402;2023-03-14T01:28:51;97958.03;;;9.95;65.19
13869;BME280;7004;48.206;16.402;2023-03-14T01:31:17;97959.38;;;9.70;66.28
13869;BME280;7004;48.206;16.402;2023-03-14T01:33:46;97948.56;;;9.73;66.26
13869;BME280;7004;48.206;16.402;2023-03-14T01:36:13;97953.09;;;9.61;67.17
13869;BME280;7004;48.206;16.402;2023-03-14T01:38:40;97952.22;;;9.51;67.47
13869;BME280;7004;48.206;16.402;2023-03-14T01:41:08;97951.84;;;9.56;67.08
13869;BME280;7004;48.206;16.402;2023-03-14T01:43:37;97946.88;;;9.62;67.32
13869;BME280;7004;48.206;16.402;2023-03-14T01:51:45;97946.09;;;9.41;67.85
13869;BME280;7004;48.206;16.402;2023-03-14T01:57:28;97943.78;;;9.17;69.09
13869;BME280;7004;48.206;16.402;2023-03-14T02:00:16;97941.84;;;9.19;68.85
13869;BME280;7004;48.206;16.402;2023-03-14T02:03:16;97949.31;;;9.14;69.42
13869;BME280;7004;48.206;16.402;2023-03-14T02:05:47;97957.44;;;9.01;69.87
13869;BME280;7004;48.206;16.402;2023-03-14T02:08:18;97959.88;;;8.93;71.09
13869;BME280;7004;48.206;16.402;2023-03-14T02:10:48;97966.44;;;8.99;70.00
13869;BME280;7004;48.206;16.402;2023-03-14T02:13:18;97959.19;;;8.91;70.77
13869;BME280;7004;48.206;16.402;2023-03-14T02:15:44;97957.66;;;8.67;71.85
13869;BME280;7004;48.206;16.402;2023-03-14T02:18:11;97950.66;;;8.78;71.76
13869;BME280;7004;48.206;16.402;2023-03-14T02:24:06;97957.72;;;8.77;71.41
13869;BME280;7004;48.206;16.402;2023-03-14T02:29:33;97941.81;;;8.88;71.48
13869;BME280;7004;48.206;16.402;2023-03-14T02:32:02;97945.75;;;8.94;71.34
13869;BME280;7004;48.206;16.402;2023-03-14T02:34:28;97957.84;;;8.75;72.37
13869;BME280;7004;48.206;16.402;2023-03-14T02:36:55;97964.38;;;8.81;71.72
13869;BME280;7004;48.206;16.402;2023-03-14T02:39:39;97971.91;;;8.86;72.42
13869;BME280;7004;48.206;16.402;2023-03-14T02:42:07;97974.34;;;8.99;71.66
13869;BME280;7004;48.206;16.402;2023-03-14T02:44:34;97971.44;;;9.02;71.48
13869;BME280;7004;48.206;16.402;2023-03-14T02:47:03;97973.03;;;9.14;70.90
13869;BME280;7004;48.206;16.402;2023-03-14T02:49:31;97988.59;;;9.17;71.33
13869;BME280;7004;48.206;16.402;2023-03-14T02:51:59;97994.19;;;9.03;71.93
13869;BME280;7004;48.206;16.402;2023-03-14T02:54:25;97993.53;;;9.10;71.53
13869;BME280;7004;48.206;16.402;2023-03-14T02:56:51;97997.28;;;9.29;70.85
13869;BME280;7004;48.206;16.402;2023-03-14T02:59:19;97991.66;;;9.22;71.04
13869;BME280;7004;48.206;16.402;2023-03-14T03:01:45;98002.88;;;9.45;70.04
13869;BME280;7004;48.206;16.402;2023-03-14T03:04:11;98019.78;;;9.12;71.47
13869;BME280;7004;48.206;16.402;2023-03-14T03:06:39;98033.13;;;9.20;71.21
13869;BME280;7004;48.206;16.402;2023-03-14T03:09:06;98031.34;;;9.00;71.50
13869;BME280;7004;48.206;16.402;2023-03-14T03:11:32;98042.97;;;9.18;71.43
13869;BME280;7004;48.206;16.402;2023-03-14T03:13:58;98036.16;;;9.15;71.35
13869;BME280;7004;48.206;16.402;2023-03-14T03:16:24;98050.94;;;9.28;70.69
13869;BME280;7004;48.206;16.402;2023-03-14T03:18:50;98055.78;;;9.23;70.92
13869;BME280;7004;48.206;16.402;2023-03-14T03:21:17;98063.47;;;9.35;70.65
13869;BME280;7004;48.206;16.402;2023-03-14T03:23:44;98071.84;;;9.40;70.08
13869;BME280;7004;48.206;16.402;2023-03-14T03:26:11;98075.19;;;9.22;70.83
13869;BME280;7004;48.206;16.402;2023-03-14T03:28:37;98059.44;;;9.31;71.46
13869;BME280;7004;48.206;16.402;2023-03-14T03:31:09;98082.38;;;9.40;69.93
13869;BME280;7004;48.206;16.402;2023-03-14T03:33:37;98091.47;;;8.73;72.95
13869;BME280;7004;48.206;16.402;2023-03-14T03:36:03;98091.38;;;8.96;72.27
13869;BME280;7004;48.206;16.402;2023-03-14T03:38:29;98099.59;;;9.03;71.91
13869;BME280;7004;48.206;16.402;2023-03-14T03:40:55;98094.78;;;8.87;71.99
13869;BME280;7004;48.206;16.402;2023-03-14T03:43:21;98081.69;;;9.17;71.25
13869;BME280;7004;48.206;16.402;2023-03-14T03:45:47;98071.66;;;9.11;71.40
13869;BME280;7004;48.206;16.402;2023-03-14T03:48:13;98069.97;;;9.10;71.45
13869;BME280;7004;48.206;16.402;2023-03-14T03:50:47;98071.22;;;9.06;71.75
13869;BME280;7004;48.206;16.402;2023-03-14T03:53:14;98077.09;;;8.78;72.84
13869;BME280;7004;48.206;16.402;2023-03-14T03:55:43;98063.22;;;8.75;72.84
13869;BME280;7004;48.206;16.402;2023-03-14T03:58:09;98076.97;;;8.47;73.92
13869;BME280;7004;48.206;16.402;2023-03-14T04:00:35;98071.34;;;8.40;75.27
13869;BME280;7004;48.206;16.402;2023-03-14T04:03:01;98074.00;;;8.18;75.80
13869;BME280;7004;48.206;16.402;2023-03-14T04:05:27;98069.59;;;8.18;76.94
13869;BME280;7004;48.206;16.402;2023-03-14T04:07:53;98058.75;;;8.32;74.73
13869;BME280;7004;48.206;16.402;2023-03-14T04:10:19;98052.56;;;8.34;74.68
13869;BME280;7004;48.206;16.402;2023-03-14T04:12:45;98061.28;;;8.45;72.22
13869;BME280;7004;48.206;16.402;2023-03-14T04:15:13;98057.50;;;8.16;75.08
13869;BME280;7004;48.206;16.402;2023-03-14T04:17:39;98048.91;;;8.57;71.56
13869;BME280;7004;48.206;16.402;2023-03-14T04:20:08;98058.28;;;8.82;67.91
13869;BME280;7004;48.206;16.402;2023-03-14T04:22:37;98061.59;;;8.84;67.43
13869;BME280;7004;48.206;16.402;2023-03-14T04:25:05;98074.41;;;8.89;66.69
13869;BME280;7004;48.206;16.402;2023-03-14T04:27:31;98082.09;;;8.81;68.00
13869;BME280;7004;48.206;16.402;2023-03-14T04:29:58;98079.59;;;9.00;67.90
13869;BME280;7004;48.206;16.402;2023-03-14T04:32:24;98080.41;;;8.91;67.38
13869;BME280;7004;48.206;16.402;2023-03-14T04:34:50;98086.25;;;9.15;64.88
13869;BME280;7004;48.206;16.402;2023-03-14T04:37:16;98083.56;;;9.27;64.31
13869;BME280;7004;48.206;16.402;2023-03-14T04:39:42;98087.28;;;9.24;64.21
13869;BME280;7004;48.206;16.402;2023-03-14T04:42:08;98092.84;;;9.21;64.82
13869;BME280;7004;48.206;16.402;2023-03-14T04:44:34;98103.94;;;9.04;65.88
13869;BME280;7004;48.206;16.402;2023-03-14T04:47:00;98099.13;;;9.09;65.41
13869;BME280;7004;48.206;16.402;2023-03-14T04:49:26;98088.69;;;9.28;64.71
13869;BME280;7004;48.206;16.402;2023-03-14T04:51:53;98085.94;;;9.09;66.30
13869;BME280;7004;48.206;16.402;2023-03-14T04:54:19;98082.91;;;8.92;67.61
13869;BME280;7004;48.206;16.402;2023-03-14T04:56:45;98080.28;;;9.13;65.62
13869;BME280;7004;48.206;16.402;2023-03-14T04:59:11;98075.97;;;9.12;64.60
13869;BME280;7004;48.206;16.402;2023-03-14T05:01:37;98090.03;;;9.02;65.10
13869;BME280;7004;48.206;16.402;2023-03-14T05:04:03;98092.88;;;9.31;64.88
13869;BME280;7004;48.206;16.402;2023-03-14T05:06:29;98098.41;;;9.28;64.66
13869;BME280;7004;48.206;16.402;2023-03-14T05:08:55;98085.59;;;9.65;63.12
13869;BME280;7004;48.206;16.402;2023-03-14T05:11:21;98084.72;;;9.55;63.93
13869;BME280;7004;48.206;16.402;2023-03-14T05:13:47;98080.22;;;9.76;62.75
13869;BME280;7004;48.206;16.402;2023-03-14T05:16:14;98095.66;;;9.08;64.75
13869;BME280;7004;48.206;16.402;2023-03-14T05:18:40;98104.38;;;9.09;65.75
13869;BME280;7004;48.206;16.402;2023-03-14T05:21:06;98100.03;;;9.19;64.76
13869;BME280;7004;48.206;16.402;2023-03-14T05:23:32;98108.13;;;9.27;64.50
13869;BME280;7004;48.206;16.402;2023-03-14T05:25:58;98108.25;;;9.26;65.00
13869;BME280;7004;48.206;16.402;2023-03-14T05:28:24;98116.56;;;9.21;65.02
13869;BME280;7004;48.206;16.402;2023-03-14T05:30:50;98134.94;;;9.32;65.42
13869;BME280;7004;48.206;16.402;2023-03-14T05:33:17;98139.38;;;9.53;64.33
13869;BME280;7004;48.206;16.402;2023-03-14T05:35:43;98140.59;;;9.49;64.54
13869;BME280;7004;48.206;16.402;2023-03-14T05:38:09;98138.75;;;9.60;64.26
13869;BME280;7004;48.206;16.402;2023-03-14T05:40:35;98145.16;;;9.47;64.83
13869;BME280;7004;48.206;16.402;2023-03-14T05:43:01;98149.34;;;9.49;64.88
13869;BME280;7004;48.206;16.402;2023-03-14T05:45:27;98145.94;;;9.58;64.84
13869;BME280;7004;48.206;16.402;2023-03-14T05:47:53;98144.09;;;9.70;64.12
13869;BME280;7004;48.206;16.402;2023-03-14T05:50:20;98152.03;;;9.80;63.74
13869;BME280;7004;48.206;16.402;2023-03-14T05:52:46;98155.28;;;9.93;63.40
13869;BME280;7004;48.206;16.402;2023-03-14T05:55:13;98153.44;;;9.84;63.52
13869;BME280;7004;48.206;16.402;2023-03-14T05:57:39;98160.00;;;9.90;63.14
13869;BME280;7004;48.206;16.402;2023-03-14T06:00:06;98170.91;;;9.54;63.28
13869;BME280;7004;48.206;16.402;2023-03-14T06:02:32;98178.75;;;9.45;63.84
13869;BME280;7004;48.206;16.402;2023-03-14T06:04:58;98181.97;;;9.48;63.50
13869;BME280;7004;48.206;16.402;2023-03-14T06:07:24;98183.78;;;9.48;63.66
13869;BME280;7004;48.206;16.402;2023-03-14T06:09:50;98195.31;;;9.68;62.91
13869;BME280;7004;48.206;16.402;2023-03-14T06:12:17;98183.50;;;9.72;62.15
13869;BME280;7004;48.206;16.402;2023-03-14T06:14:43;98180.59;;;9.96;61.38
13869;BME280;7004;48.206;16.402;2023-03-14T06:17:09;98176.66;;;9.90;60.98
13869;BME280;7004;48.206;16.402;2023-03-14T06:19:35;98174.34;;;9.97;60.32
13869;BME280;7004;48.206;16.402;2023-03-14T06:22:01;98177.28;;;10.03;59.80
13869;BME280;7004;48.206;16.402;2023-03-14T06:24:27;98182.63;;;10.13;59.07
13869;BME280;7004;48.206;16.402;2023-03-14T06:26:54;98182.06;;;10.10;59.00
13869;BME280;7004;48.206;16.402;2023-03-14T06:29:20;98170.78;;;10.07;59.51
13869;BME280;7004;48.206;16.402;2023-03-14T06:31:46;98173.06;;;10.22;59.16
13869;BME280;7004;48.206;16.402;2023-03-14T06:34:13;98179.53;;;10.29;58.65
13869;BME280;7004;48.206;16.402;2023-03-14T06:36:39;98180.13;;;10.42;58.47
13869;BME280;7004;48.206;16.402;2023-03-14T06:39:05;98179.00;;;10.14;59.23
13869;BME280;7004;48.206;16.402;2023-03-14T06:41:32;98178.50;;;10.20;59.27
13869;BME280;7004;48.206;16.402;2023-03-14T06:43:58;98170.59;;;10.61;58.61
13869;BME280;7004;48.206;16.402;2023-03-14T06:46:24;98167.22;;;10.49;58.69
13869;BME280;7004;48.206;16.402;2023-03-14T06:48:51;98158.47;;;10.58;58.19
13869;BME280;7004;48.206;16.402;2023-03-14T06:51:17;98142.13;;;10.84;57.75
13869;BME280;7004;48.206;16.402;2023-03-14T06:53:43;98159.25;;;10.99;57.36
13869;BME280;7004;48.206;16.402;2023-03-14T06:56:09;98177.88;;;11.07;56.97
13869;BME280;7004;48.206;16.402;2023-03-14T06:58:35;98170.66;;;11.09;56.97
13869;BME280;7004;48.206;16.402;2023-03-14T07:01:01;98169.97;;;11.17;56.60
13869;BME280;7004;48.206;16.402;2023-03-14T07:03:27;98166.63;;;11.25;56.21
13869;BME280;7004;48.206;16.402;2023-03-14T07:05:54;98169.00;;;11.37;56.05
13869;BME280;7004;48.206;16.402;2023-03-14T07:08:20;98165.47;;;11.66;54.86
13869;BME280;7004;48.206;16.402;2023-03-14T07:10:46;98156.81;;;11.84;54.20
13869;BME280;7004;48.206;16.402;2023-03-14T07:13:12;98159.47;;;11.93;54.10
13869;BME280;7004;48.206;16.402;2023-03-14T07:15:38;98167.63;;;12.37;52.67
13869;BME280;7004;48.206;16.402;2023-03-14T07:18:04;98182.34;;;12.59;51.97
13869;BME280;7004;48.206;16.402;2023-03-14T07:20:31;98184.63;;;12.44;52.50
13869;BME280;7004;48.206;16.402;2023-03-14T07:22:58;98193.28;;;12.46;52.58
13869;BME280;7004;48.206;16.402;2023-03-14T07:25:26;98179.00;;;12.30;53.09
13869;BME280;7004;48.206;16.402;2023-03-14T07:27:52;98185.06;;;12.02;53.63
13869;BME280;7004;48.206;16.402;2023-03-14T07:30:18;98183.09;;;12.14;53.84
13869;BME280;7004;48.206;16.402;2023-03-14T07:32:44;98188.22;;;12.16;53.48
13869;BME280;7004;48.206;16.402;2023-03-14T07:35:10;98185.97;;;12.21;54.06
13869;BME280;7004;48.206;16.402;2023-03-14T07:37:36;98188.22;;;12.16;54.09
13869;BME280;7004;48.206;16.402;2023-03-14T07:40:03;98180.56;;;12.22;54.41
13869;BME280;7004;48.206;16.402;2023-03-14T07:42:32;98184.63;;;12.17;54.41
13869;BME280;7004;48.206;16.402;2023-03-14T07:44:59;98185.53;;;12.35;54.53
13869;BME280;7004;48.206;16.402;2023-03-14T07:47:25;98177.47;;;12.27;55.62
13869;BME280;7004;48.206;16.402;2023-03-14T07:49:51;98178.53;;;12.34;55.64
13869;BME280;7004;48.206;16.402;2023-03-14T07:52:17;98174.09;;;12.35;56.63
13869;BME280;7004;48.206;16.402;2023-03-14T07:54:43;98163.78;;;12.59;56.37
13869;BME280;7004;48.206;16.402;2023-03-14T07:57:09;98163.25;;;12.56;57.06
13869;BME280;7004;48.206;16.402;2023-03-14T07:59:35;98179.41;;;12.35;58.12
13869;BME280;7004;48.206;16.402;2023-03-14T08:02:01;98172.78;;;12.49;58.22
13869;BME280;7004;48.206;16.402;2023-03-14T08:04:27;98173.56;;;12.59;57.95
13869;BME280;7004;48.206;16.402;2023-03-14T08:06:53;98166.28;;;12.33;58.80
13869;BME280;7004;48.206;16.402;2023-03-14T08:09:20;98163.91;;;12.58;58.71
13869;BME280;7004;48.206;16.402;2023-03-14T08:11:46;98166.09;;;12.72;60.34
13869;BME280;7004;48.206;16.402;2023-03-14T08:14:12;98154.84;;;12.60;59.72
13869;BME280;7004;48.206;16.402;2023-03-14T08:16:38;98149.63;;;12.51;60.64
13869;BME280;7004;48.206;16.402;2023-03-14T08:19:04;98162.88;;;12.51;61.12
13869;BME280;7004;48.206;16.402;2023-03-14T08:21:30;98165.00;;;12.37;60.24
13869;BME280;7004;48.206;16.402;2023-03-14T08:23:57;98159.69;;;12.37;60.99
13869;BME280;7004;48.206;16.402;2023-03-14T08:26:23;98155.09;;;12.39;61.84
13869;BME280;7004;48.206;16.402;2023-03-14T08:28:49;98150.41;;;12.23;61.02
13869;BME280;7004;48.206;16.402;2023-03-14T08:31:15;98160.38;;;12.39;61.03
13869;BME280;7004;48.206;16.402;2023-03-14T08:33:41;98160.81;;;12.07;61.59
13869;BME280;7004;48.206;16.402;2023-03-14T08:36:08;98171.88;;;11.83;61.37
13869;BME280;7004;48.206;16.402;2023-03-14T08:38:35;98171.19;;;11.62;61.57
13869;BME280;7004;48.206;16.402;2023-03-14T08:41:02;98174.53;;;11.54;61.93
13869;BME280;7004;48.206;16.402;2023-03-14T08:43:30;98172.59;;;11.66;61.47
13869;BME280;7004;48.206;16.402;2023-03-14T08:46:00;98166.72;;;11.62;61.32
13869;BME280;7004;48.206;16.402;2023-03-14T08:48:28;98171.47;;;11.78;60.84
13869;BME280;7004;48.206;16.402;2023-03-14T08:51:15;98169.13;;;11.65;61.03
13869;BME280;7004;48.206;16.402;2023-03-14T08:53:42;98152.94;;;11.78;60.55
13869;BME280;7004;48.206;16.402;2023-03-14T08:56:09;98164.78;;;11.74;60.91
13869;BME280;7004;48.206;16.402;2023-03-14T08:58:37;98153.94;;;11.38;62.53
13869;BME280;7004;48.206;16.402;2023-03-14T09:01:05;98150.34;;;11.39;62.64
13869;BME280;7004;48.206;16.402;2023-03-14T09:03:31;98152.28;;;11.37;62.73
13869;BME280;7004;48.206;16.402;2023-03-14T09:06:09;98162.44;;;11.51;61.85
13869;BME280;7004;48.206;16.402;2023-03-14T09:08:35;98148.25;;;11.43;61.67
13869;BME280;7004;48.206;16.402;2023-03-14T09:11:03;98150.34;;;11.39;61.50
13869;BME280;7004;48.206;16.402;2023-03-14T09:13:29;98144.50;;;11.35;61.81
13869;BME280;7004;48.206;16.402;2023-03-14T09:15:57;98147.13;;;11.45;61.48
13869;BME280;7004;48.206;16.402;2023-03-14T09:18:23;98148.59;;;11.67;60.93
13869;BME280;7004;48.206;16.402;2023-03-14T09:20:49;98146.88;;;11.29;62.56
13869;BME280;7004;48.206;16.402;2023-03-14T09:23:16;98148.66;;;11.57;61.38
13869;BME280;7004;48.206;16.402;2023-03-14T09:25:42;98161.72;;;11.59;61.21
13869;BME280;7004;48.206;16.402;2023-03-14T09:28:08;98157.97;;;11.62;61.36
13869;BME280;7004;48.206;16.402;2023-03-14T09:30:34;98159.91;;;11.69;61.78
13869;BME280;7004;48.206;16.402;2023-03-14T09:33:00;98152.13;;;11.68;62.36
13869;BME280;7004;48.206;16.402;2023-03-14T09:35:26;98156.41;;;11.69;64.35
13869;BME280;7004;48.206;16.402;2023-03-14T09:37:52;98162.28;;;11.63;64.97
13869;BME280;7004;48.206;16.402;2023-03-14T09:40:20;98169.25;;;11.54;66.54
13869;BME280;7004;48.206;16.402;2023-03-14T09:42:50;98158.13;;;11.50;67.95
13869;BME280;7004;48.206;16.402;2023-03-14T09:45:31;98161.34;;;11.44;69.94
13869;BME280;7004;48.206;16.402;2023-03-14T09:47:59;98165.06;;;11.51;70.56
13869;BME280;7004;48.206;16.402;2023-03-14T09:50:43;98167.75;;;11.32;72.20
13869;BME280;7004;48.206;16.402;2023-03-14T09:53:23;98159.81;;;11.32;72.01
13869;BME280;7004;48.206;16.402;2023-03-14T09:55:51;98163.28;;;11.42;71.64
13869;BME280;7004;48.206;16.402;2023-03-14T09:58:23;98170.94;;;11.45;71.51
13869;BME280;7004;48.206;16.402;2023-03-14T10:00:52;98169.13;;;11.46;70.52
13869;BME280;7004;48.206;16.402;2023-03-14T10:03:31;98169.13;;;11.36;70.14
13869;BME280;7004;48.206;16.402;2023-03-14T10:05:58;98167.34;;;11.27;68.24
13869;BME280;7004;48.206;16.402;2023-03-14T10:08:25;98170.53;;;11.40;67.58
13869;BME280;7004;48.206;16.402;2023-03-14T10:10:51;98164.41;;;11.49;65.61
13869;BME280;7004;48.206;16.402;2023-03-14T10:13:24;98173.88;;;11.32;66.40
13869;BME280;7004;48.206;16.402;2023-03-14T10:16:12;98166.34;;;11.47;65.72
13869;BME280;7004;48.206;16.402;2023-03-14T10:18:45;98166.47;;;11.55;65.40
13869;BME280;7004;48.206;16.402;2023-03-14T10:21:28;98160.91;;;11.58;64.80
13869;BME280;7004;48.206;16.402;2023-03-14T10:23:54;98157.22;;;11.79;64.30
13869;BME280;7004;48.206;16.402;2023-03-14T10:26:34;98151.94;;;11.89;64.66
13869;BME280;7004;48.206;16.402;2023-03-14T10:29:08;98156.94;;;12.01;65.13
13869;BME280;7004;48.206;16.402;2023-03-14T10:31:57;98155.81;;;11.85;64.76
13869;BME280;7004;48.206;16.402;2023-03-14T10:34:28;98155.25;;;12.00;63.94
13869;BME280;7004;48.206;16.402;2023-03-14T10:37:27;98162.19;;;12.11;64.31
13869;BME280;7004;48.206;16.402;2023-03-14T10:39:58;98157.69;;;12.21;63.30
13869;BME280;7004;48.206;16.402;2023-03-14T10:42:30;98153.63;;;12.27;63.21
13869;BME280;7004;48.206;16.402;2023-03-14T10:45:28;98155.00;;;12.31;64.27
13869;BME280;7004;48.206;16.402;2023-03-14T10:47:50;98164.44;;;12.71;62.11
13869;BME280;7004;48.206;16.402;2023-03-14T10:50:29;98170.34;;;12.83;62.31
13869;BME280;7004;48.206;16.402;2023-03-14T10:52:57;98165.66;;;12.95;63.40
13869;BME280;7004;48.206;16.402;2023-03-14T10:55:43;98162.31;;;12.75;64.87
13869;BME280;7004;48.206;16.402;2023-03-14T10:58:44;98153.81;;;12.71;65.39
13869;BME280;7004;48.206;16.402;2023-03-14T11:07:30;98144.13;;;12.80;64.05
13869;BME280;7004;48.206;16.402;2023-03-14T11:16:19;98145.97;;;12.52;60.15
13869;BME280;7004;48.206;16.402;2023-03-14T11:19:16;98144.88;;;12.44;60.26
13869;BME280;7004;48.206;16.402;2023-03-14T11:24:55;98147.00;;;12.41;60.56
13869;BME280;7004;48.206;16.402;2023-03-14T11:27:42;98149.78;;;12.39;59.17
13869;BME280;7004;48.206;16.402;2023-03-14T11:30:25;98147.81;;;12.14;59.12
13869;BME280;7004;48.206;16.402;2023-03-14T11:33:25;98157.94;;;12.28;58.02
13869;BME280;7004;48.206;16.402;2023-03-14T11:36:15;98143.75;;;12.19;57.88
13869;BME280;7004;48.206;16.402;2023-03-14T11:38:59;98153.88;;;12.34;58.10
13869;BME280;7004;48.206;16.402;2023-03-14T11:41:46;98152.75;;;12.36;57.65
13869;BME280;7004;48.206;16.402;2023-03-14T11:47:24;98158.53;;;12.22;58.13
13869;BME280;7004;48.206;16.402;2023-03-14T11:50:05;98155.50;;;12.17;58.12
13869;BME280;7004;48.206;16.402;2023-03-14T11:52:52;98161.97;;;12.32;58.02
13869;BME280;7004;48.206;16.402;2023-03-14T11:55:34;98157.59;;;12.03;59.17
13869;BME280;7004;48.206;16.402;2023-03-14T11:58:14;98167.00;;;11.88;59.05
13869;BME280;7004;48.206;16.402;2023-03-14T12:00:43;98165.28;;;12.07;59.66
13869;BME280;7004;48.206;16.402;2023-03-14T12:03:34;98147.19;;;11.92;60.75
13869;BME280;7004;48.206;16.402;2023-03-14T12:06:27;98140.25;;;11.91;59.97
13869;BME280;7004;48.206;16.402;2023-03-14T12:08:59;98138.41;;;11.82;60.91
13869;BME280;7004;48.206;16.402;2023-03-14T12:11:35;98150.13;;;11.70;60.79
13869;BME280;7004;48.206;16.402;2023-03-14T12:17:22;98154.47;;;11.71;60.86
13869;BME280;7004;48.206;16.402;2023-03-14T12:20:20;98162.84;;;11.56;61.32
13869;BME280;7004;48.206;16.402;2023-03-14T12:22:52;98156.44;;;11.59;61.70
13869;BME280;7004;48.206;16.402;2023-03-14T12:25:26;98160.06;;;11.58;61.36
13869;BME280;7004;48.206;16.402;2023-03-14T12:30:39;98153.38;;;11.64;61.33
13869;BME280;7004;48.206;16.402;2023-03-14T12:41:17;98164.59;;;11.95;65.37
13869;BME280;7004;48.206;16.402;2023-03-14T12:43:46;98165.44;;;11.95;62.56
13869;BME280;7004;48.206;16.402;2023-03-14T12:46:23;98152.16;;;12.15;61.60
13869;BME280;7004;48.206;16.402;2023-03-14T12:49:05;98144.94;;;11.97;60.93
13869;BME280;7004;48.206;16.402;2023-03-14T12:51:40;98144.81;;;13.18;59.17
13869;BME280;7004;48.206;16.402;2023-03-14T12:57:45;98149.91;;;12.20;58.66
13869;BME280;7004;48.206;16.402;2023-03-14T13:00:51;98155.44;;;11.70;59.99
13869;BME280;7004;48.206;16.402;2023-03-14T13:03:26;98138.34;;;11.54;59.93
13869;BME280;7004;48.206;16.402;2023-03-14T13:06:03;98145.72;;;11.41;60.54
13869;BME280;7004;48.206;16.402;2023-03-14T13:08:44;98149.47;;;11.68;60.57
13869;BME280;7004;48.206;16.402;2023-03-14T13:11:19;98148.88;;;11.84;60.24
13869;BME280;7004;48.206;16.402;2023-03-14T13:13:49;98142.28;;;12.07;59.44
13869;BME280;7004;48.206;16.402;2023-03-14T13:16:20;98144.84;;;11.89;59.32
13869;BME280;7004;48.206;16.402;2023-03-14T13:18:50;98134.41;;;11.78;59.23
13869;BME280;7004;48.206;16.402;2023-03-14T13:21:25;98144.59;;;12.20;59.12
13869;BME280;7004;48.206;16.402;2023-03-14T13:23:59;98131.59;;;11.79;60.01
13869;BME280;7004;48.206;16.402;2023-03-14T13:26:46;98155.59;;;11.49;62.15
13869;BME280;7004;48.206;16.402;2023-03-14T13:29:25;98143.72;;;11.72;60.22
13869;BME280;7004;48.206;16.402;2023-03-14T13:31:54;98147.75;;;11.76;58.97
13869;BME280;7004;48.206;16.402;2023-03-14T13:34:30;98156.41;;;11.69;59.78
13869;BME280;7004;48.206;16.402;2023-03-14T13:36:56;98163.84;;;11.46;59.92
13869;BME280;7004;48.206;16.402;2023-03-14T13:39:25;98166.34;;;11.37;60.15
13869;BME280;7004;48.206;16.402;2023-03-14T13:41:53;98172.34;;;11.49;60.04
13869;BME280;7004;48.206;16.402;2023-03-14T13:44:38;98171.34;;;11.31;61.07
13869;BME280;7004;48.206;16.402;2023-03-14T13:47:12;98161.47;;;11.43;60.34
13869;BME280;7004;48.206;16.402;2023-03-14T13:49:40;98161.63;;;11.31;61.26
13869;BME280;7004;48.206;16.402;2023-03-14T13:52:35;98174.00;;;11.31;61.44
13869;BME280;7004;48.206;16.402;2023-03-14T13:55:04;98164.25;;;11.51;60.49
13869;BME280;7004;48.206;16.402;2023-03-14T13:57:48;98164.81;;;11.35;61.25
13869;BME280;7004;48.206;16.402;2023-03-14T14:00:22;98171.38;;;11.21;61.02
13869;BME280;7004;48.206;16.402;2023-03-14T14:02:57;98170.41;;;11.32;61.11
13869;BME280;7004;48.206;16.402;2023-03-14T14:05:28;98176.22;;;11.26;61.70
13869;BME280;7004;48.206;16.402;2023-03-14T14:07:54;98176.94;;;11.28;61.53
13869;BME280;7004;48.206;16.402;2023-03-14T14:10:21;98174.81;;;11.41;62.11
13869;BME280;7004;48.206;16.402;2023-03-14T14:12:57;98182.09;;;11.39;62.91